Time;durP1;ratioP1;P1;durP2;ratioP2;P2;SDS_P1;SDS_P2;PMS_P1;PMS_P2;Temp;Humidity;BMP_temperature;BMP_pressure;BME280_temperature;BME280_humidity;BME280_pressure;Samples;Min_cycle;Max_cycle;Signal;HPM_P1;HPM_P2
2023/03/27 00:01:04;;;;;;;9.37;4.50;;;2.90;99.90;;;;;;2611019;54;20936;-70
2023/03/27 00:06:53;;;;;;;8.80;4.70;;;2.90;99.90;;;;;;2613807;54;20435;-70
2023/03/27 00:12:45;;;;;;;9.37;4.20;;;2.90;99.90;;;;;;2612501;54;20398;-71
2023/03/27 00:18:32;;;;;;;10.23;4.50;;;2.70;99.90;;;;;;2613143;54;20419;-70
2023/03/27 00:24:21;;;;;;;6.40;4.37;;;2.40;99.90;;;;;;2613818;54;20118;-70
2023/03/27 00:30:09;;;;;;;11.60;4.47;;;2.50;99.90;;;;;;2612136;54;20494;-69
2023/03/27 00:35:57;;;;;;;21.43;6.40;;;2.20;99.90;;;;;;2613156;54;20431;-70
2023/03/27 00:41:45;;;;;;;11.03;4.70;;;2.20;99.90;;;;;;2613938;54;20123;-71
2023/03/27 00:47:37;;;;;;;13.00;4.50;;;2.20;99.90;;;;;;2610285;54;20162;-70
2023/03/27 00:50:41;;;;;;;8.83;4.33;;;2.20;99.90;;;;;;2613758;31;20841;-69
2023/03/27 00:53:10;;;;;;;23.47;5.50;;;2.10;99.90;;;;;;2614203;39;21047;-70
2023/03/27 00:59:05;;;;;;;9.23;3.93;;;2.10;99.90;;;;;;2614407;54;20395;-69
2023/03/27 01:04:54;;;;;;;13.27;4.93;;;1.70;99.90;;;;;;2611059;54;20407;-70
2023/03/27 01:24:03;;;;;;;9.90;4.43;;;1.40;99.90;;;;;;2612606;54;20411;-70
2023/03/27 01:36:26;;;;;;;7.23;4.17;;;1.60;99.90;;;;;;2612709;54;20418;-70
2023/03/27 01:42:14;;;;;;;5.93;3.80;;;1.70;99.90;;;;;;2614427;54;20433;-71
2023/03/27 01:48:11;;;;;;;8.87;3.80;;;1.60;99.90;;;;;;2612938;54;20414;-70
2023/03/27 01:57:27;;;;;;;14.20;3.93;;;1.50;99.90;;;;;;2613780;54;20397;-69
2023/03/27 02:03:25;;;;;;;9.93;4.43;;;1.50;99.90;;;;;;2612427;54;20395;-70
2023/03/27 02:09:23;;;;;;;8.50;4.77;;;1.30;99.90;;;;;;2612768;54;20374;-69
2023/03/27 02:15:25;;;;;;;10.30;4.63;;;1.70;99.90;;;;;;2612116;54;20932;-70
2023/03/27 02:21:13;;;;;;;6.20;4.37;;;1.40;99.90;;;;;;2611255;54;20487;-76
2023/03/27 02:52:42;;;;;;;9.00;4.30;;;1.10;99.90;;;;;;2613976;54;21206;-70
2023/03/27 03:11:14;;;;;;;8.63;5.20;;;0.70;99.90;;;;;;2614170;54;20370;-76
2023/03/27 03:17:02;;;;;;;7.70;4.50;;;0.70;99.90;;;;;;2614846;54;20162;-75
2023/03/27 03:22:50;;;;;;;7.83;4.87;;;0.40;99.90;;;;;;2612901;54;20416;-74
2023/03/27 03:28:38;;;;;;;9.53;5.47;;;0.60;99.90;;;;;;2614216;54;20215;-75
2023/03/27 03:34:26;;;;;;;10.40;5.20;;;0.30;99.90;;;;;;2613249;54;20167;-75
2023/03/27 03:40:14;;;;;;;9.90;4.03;;;0.60;99.90;;;;;;2613818;54;20399;-75
2023/03/27 03:46:01;;;;;;;11.23;6.50;;;0.80;99.90;;;;;;2613862;54;20174;-75
2023/03/27 03:51:49;;;;;;;7.30;4.30;;;0.60;99.90;;;;;;2615311;31;20626;-75
2023/03/27 03:57:37;;;;;;;5.17;4.30;;;0.50;99.90;;;;;;2614631;54;20382;-75
2023/03/27 04:03:30;;;;;;;8.97;4.57;;;0.60;99.90;;;;;;2612528;54;20406;-74
2023/03/27 04:09:18;;;;;;;6.20;4.40;;;0.70;99.90;;;;;;2614346;54;20394;-75
2023/03/27 04:15:08;;;;;;;8.93;4.57;;;0.50;99.90;;;;;;2615001;54;20158;-75
2023/03/27 04:20:57;;;;;;;11.23;3.73;;;0.60;99.90;;;;;;2614250;54;20430;-74
2023/03/27 04:26:45;;;;;;;8.67;4.60;;;0.70;99.90;;;;;;2614187;54;20370;-75
2023/03/27 04:32:33;;;;;;;14.10;5.40;;;0.60;99.90;;;;;;2614671;54;20416;-75
2023/03/27 04:38:20;;;;;;;14.73;4.33;;;0.60;99.90;;;;;;2612000;54;20378;-74
2023/03/27 04:44:08;;;;;;;10.50;4.97;;;0.70;99.90;;;;;;2612178;54;20134;-74
2023/03/27 04:49:58;;;;;;;7.60;4.70;;;0.80;99.90;;;;;;2613556;54;21001;-74
2023/03/27 04:55:49;;;;;;;9.20;5.67;;;0.90;99.90;;;;;;2614233;54;20374;-75
2023/03/27 05:01:37;;;;;;;12.13;5.57;;;1.20;99.90;;;;;;2611269;54;20539;-75
2023/03/27 05:04:57;;;;;;;10.63;4.87;;;1.10;99.90;;;;;;2614679;54;20930;-75
2023/03/27 05:10:45;;;;;;;5.00;4.50;;;1.20;99.90;;;;;;2614259;54;20999;-75
2023/03/27 05:16:34;;;;;;;7.23;4.70;;;1.20;99.90;;;;;;2613499;54;21204;-77
2023/03/27 05:22:22;;;;;;;16.00;5.30;;;1.30;99.90;;;;;;2614556;54;20383;-77
2023/03/27 05:28:09;;;;;;;9.70;5.30;;;1.20;99.90;;;;;;2610216;54;20679;-75
2023/03/27 05:33:58;;;;;;;9.77;4.27;;;1.40;99.90;;;;;;2612884;54;20709;-74
2023/03/27 05:39:50;;;;;;;10.87;5.60;;;1.70;99.90;;;;;;2611103;54;20379;-75
2023/03/27 05:45:37;;;;;;;10.53;6.07;;;1.80;99.90;;;;;;2604878;39;21027;-75
2023/03/27 05:51:26;;;;;;;12.53;4.80;;;2.10;99.90;;;;;;2607715;54;20134;-76
2023/03/27 05:57:14;;;;;;;11.00;4.27;;;2.20;99.90;;;;;;2611245;39;20929;-75
2023/03/27 06:00:21;;;;;;;5.20;4.33;;;2.40;99.90;;;;;;2612475;46;20463;-75
2023/03/27 06:02:48;;;;;;;9.87;4.80;;;2.40;99.90;;;;;;2612549;54;20684;-75
2023/03/27 06:08:36;;;;;;;9.90;5.70;;;2.60;99.90;;;;;;2611552;54;21335;-74
2023/03/27 06:14:24;;;;;;;6.57;5.70;;;2.80;99.90;;;;;;2610203;54;20403;-73
2023/03/27 06:20:13;;;;;;;9.53;6.90;;;2.80;99.90;;;;;;2613614;54;20418;-75
2023/03/27 06:26:04;;;;;;;22.63;16.73;;;2.60;99.90;;;;;;2613806;54;20386;-74
2023/03/27 06:31:51;;;;;;;19.50;9.10;;;4.00;99.90;;;;;;2614482;54;20446;-73
2023/03/27 06:37:45;;;;;;;9.27;6.63;;;4.20;99.90;;;;;;2614121;54;20171;-78
2023/03/27 06:43:33;;;;;;;16.67;8.43;;;4.80;99.90;;;;;;2610952;54;20535;-74
2023/03/27 06:49:21;;;;;;;5.07;4.40;;;5.80;99.90;;;;;;2611725;54;20150;-74
2023/03/27 06:55:09;;;;;;;9.43;5.33;;;5.30;97.50;;;;;;2611829;54;20126;-74
2023/03/27 07:04:56;;;;;;;6.17;4.87;;;6.50;74.70;;;;;;2611579;54;20426;-75
2023/03/27 07:10:44;;;;;;;7.13;5.03;;;5.60;73.50;;;;;;2612805;54;20512;-74
2023/03/27 07:16:32;;;;;;;6.50;5.83;;;6.90;55.50;;;;;;2613245;54;20391;-74
2023/03/27 07:22:20;;;;;;;7.40;5.37;;;6.30;47.90;;;;;;2613687;54;20247;-74
2023/03/27 07:28:11;;;;;;;8.40;5.80;;;7.40;45.40;;;;;;2613688;54;20134;-75
2023/03/27 07:33:59;;;;;;;6.00;5.50;;;7.00;47.00;;;;;;2613235;54;20403;-74
2023/03/27 07:39:47;;;;;;;7.57;5.40;;;6.70;41.10;;;;;;2614816;39;20503;-74
2023/03/27 07:45:35;;;;;;;8.93;6.60;;;7.70;36.10;;;;;;2613037;54;20169;-74
2023/03/27 07:51:23;;;;;;;6.53;6.03;;;7.60;38.40;;;;;;2609798;39;20746;-75
2023/03/27 07:57:12;;;;;;;7.33;6.70;;;8.00;36.80;;;;;;2611705;54;20460;-76
2023/03/27 08:00:18;;;;;;;7.10;6.50;;;8.00;35.80;;;;;;2610855;47;20419;-76
2023/03/27 08:02:45;;;;;;;8.20;6.77;;;7.80;37.60;;;;;;2613709;54;20435;-75
2023/03/27 08:08:33;;;;;;;7.00;6.60;;;8.50;33.60;;;;;;2611986;46;20458;-75
2023/03/27 08:14:21;;;;;;;7.10;6.60;;;8.50;29.70;;;;;;2609844;54;20443;-74
2023/03/27 08:20:13;;;;;;;7.87;7.27;;;7.10;37.60;;;;;;2613201;54;20126;-76
2023/03/27 08:26:01;;;;;;;7.20;6.63;;;8.10;32.00;;;;;;2611526;46;20463;-75
2023/03/27 08:31:49;;;;;;;8.30;7.40;;;8.30;32.80;;;;;;2610553;54;20500;-75
2023/03/27 08:37:37;;;;;;;6.90;6.50;;;7.90;35.70;;;;;;2611903;54;20423;-75
2023/03/27 08:49:59;;;;;;;7.87;7.30;;;7.80;50.20;;;;;;2608531;54;20399;-75
2023/03/27 08:55:46;;;;;;;6.90;6.53;;;6.60;44.40;;;;;;2612937;54;21029;-76
2023/03/27 09:11:35;;;;;;;8.83;7.63;;;8.60;26.00;;;;;;2612778;39;20807;-75
2023/03/27 09:33:16;;;;;;;8.70;8.20;;;8.20;19.90;;;;;;2608904;54;20439;-75
2023/03/27 09:48:49;;;;;;;9.43;8.83;;;9.00;14.50;;;;;;2610989;54;20550;-75
2023/03/27 09:54:52;;;;;;;8.60;8.20;;;7.80;19.50;;;;;;2612997;54;20906;-76
2023/03/27 10:04:55;;;;;;;9.60;8.73;;;9.50;15.70;;;;;;2610665;54;20370;-77
2023/03/27 10:10:44;;;;;;;11.17;10.17;;;8.30;16.50;;;;;;2612017;54;20382;-76
2023/03/27 10:16:39;;;;;;;9.50;9.00;;;8.00;17.60;;;;;;2614216;54;20519;-76
2023/03/27 10:22:30;;;;;;;9.53;8.93;;;9.50;12.30;;;;;;2612607;54;20972;-75
2023/03/27 10:28:26;;;;;;;10.70;9.93;;;10.40;7.90;;;;;;2612773;39;20746;-76
2023/03/27 10:34:36;;;;;;;10.63;10.03;;;8.70;7.70;;;;;;2611141;54;20924;-75
2023/03/27 10:40:28;;;;;;;10.33;9.70;;;10.00;4.10;;;;;;2611014;54;20407;-75
2023/03/27 10:46:25;;;;;;;9.90;9.40;;;10.20;2.90;;;;;;2612834;54;20395;-76
2023/03/27 11:05:22;;;;;;;11.50;10.60;;;9.80;1.00;;;;;;2614250;54;20514;-75
2023/03/27 11:14:01;;;;;;;9.70;9.20;;;10.20;1.00;;;;;;2609640;54;20409;-76
2023/03/27 11:19:54;;;;;;;11.27;9.23;;;8.90;1.00;;;;;;2610711;54;20391;-76
2023/03/27 11:25:46;;;;;;;9.50;9.10;;;7.90;1.00;;;;;;2611515;54;20415;-74
2023/03/27 11:31:48;;;;;;;10.30;9.60;;;7.80;12.20;;;;;;2614815;54;20655;-75
2023/03/27 11:41:42;;;;;;;10.00;9.60;;;9.00;10.30;;;;;;2609144;54;20422;-76
2023/03/27 11:47:37;;;;;;;9.43;9.03;;;8.50;9.30;;;;;;2607363;54;20495;-75
2023/03/27 12:03:22;;;;;;;9.13;8.63;;;7.80;21.40;;;;;;2612665;39;20810;-76
2023/03/27 12:09:32;;;;;;;8.50;7.90;;;6.80;53.20;;;;;;2611758;54;20475;-75
2023/03/27 12:15:41;;;;;;;9.23;8.70;;;8.50;49.70;;;;;;2613250;54;20432;-76
2023/03/27 12:41:04;;;;;;;10.60;10.20;;;10.50;1.00;;;;;;2613323;54;20379;-76
2023/03/27 12:47:05;;;;;;;10.20;9.80;;;11.30;1.00;;;;;;2611950;54;20365;-75
2023/03/27 12:52:53;;;;;;;10.97;10.50;;;8.90;1.00;;;;;;2612233;54;20483;-76
2023/03/27 12:58:46;;;;;;;7.60;7.00;;;7.30;30.60;;;;;;2610913;54;20649;-74
2023/03/27 13:27:47;;;;;;;2.83;1.90;;;4.80;99.90;;;;;;2610853;54;20427;-74
2023/03/27 13:33:41;;;;;;;6.57;2.10;;;4.50;99.90;;;;;;2613710;39;20493;-75
2023/03/27 13:46:06;;;;;;;2.47;2.20;;;5.40;99.90;;;;;;2612552;54;20358;-75
2023/03/27 14:15:19;;;;;;;5.10;4.70;;;8.40;98.70;;;;;;2608647;54;21120;-70
2023/03/27 14:21:12;;;;;;;6.00;5.60;;;11.00;55.50;;;;;;2610067;39;20869;-70
2023/03/27 14:27:01;;;;;;;6.47;6.07;;;10.50;45.50;;;;;;2611774;54;20403;-69
2023/03/27 14:32:48;;;;;;;8.10;7.60;;;9.80;38.20;;;;;;2610416;39;20500;-70
2023/03/27 14:38:37;;;;;;;8.40;7.80;;;9.40;35.60;;;;;;2611590;54;20420;-69
2023/03/27 14:44:28;;;;;;;8.20;7.80;;;8.30;37.10;;;;;;2610956;54;20374;-71
2023/03/27 14:50:16;;;;;;;8.33;7.93;;;8.30;37.10;;;;;;2612874;54;20419;-69
2023/03/27 14:56:11;;;;;;;9.43;8.70;;;8.90;35.00;;;;;;2612547;54;20387;-70
2023/03/27 15:02:02;;;;;;;8.33;8.00;;;9.40;31.50;;;;;;2611095;54;20491;-70
2023/03/27 15:07:50;;;;;;;8.20;7.70;;;9.30;33.10;;;;;;2611114;54;20965;-69
2023/03/27 15:13:38;;;;;;;7.63;7.20;;;8.70;33.60;;;;;;2613781;54;20399;-70
2023/03/27 15:25:59;;;;;;;10.20;9.40;;;8.80;24.90;;;;;;2609968;39;20813;-68
2023/03/27 15:31:48;;;;;;;10.20;9.53;;;9.80;23.10;;;;;;2607846;54;20443;-70
2023/03/27 15:37:35;;;;;;;10.40;9.70;;;10.50;19.90;;;;;;2608928;54;21032;-70
2023/03/27 15:43:23;;;;;;;9.63;8.93;;;9.00;17.30;;;;;;2610495;54;20150;-69
2023/03/27 15:46:27;;;;;;;9.87;9.37;;;9.00;19.20;;;;;;2609960;54;20515;-70
2023/03/27 15:48:55;;;;;;;9.80;9.20;;;10.60;16.90;;;;;;2612455;54;20973;-70
2023/03/27 16:11:05;;;;;;;9.93;9.43;;;8.80;8.80;;;;;;2614546;39;21076;-75
2023/03/27 16:23:13;;;;;;;10.80;10.20;;;9.00;6.80;;;;;;2612464;54;20424;-75
2023/03/27 16:29:03;;;;;;;10.77;10.37;;;9.00;2.90;;;;;;2613754;39;20515;-75
2023/03/27 16:34:51;;;;;;;12.13;11.50;;;8.40;1.70;;;;;;2613623;54;20391;-75
2023/03/27 16:40:39;;;;;;;11.97;11.37;;;7.20;6.40;;;;;;2612185;54;20138;-75
2023/03/27 16:46:28;;;;;;;10.33;9.83;;;7.30;7.30;;;;;;2612427;54;20519;-75
2023/03/27 16:52:16;;;;;;;11.70;11.20;;;8.20;5.00;;;;;;2613540;54;20390;-75
2023/03/27 16:58:04;;;;;;;11.63;11.03;;;6.90;7.60;;;;;;2614098;39;20642;-76
2023/03/27 17:03:51;;;;;;;12.60;11.50;;;6.60;11.50;;;;;;2610513;54;20390;-74
2023/03/27 17:13:01;;;;;;;11.70;11.10;;;6.70;17.50;;;;;;2613447;54;20407;-76
2023/03/27 17:18:48;;;;;;;11.37;10.77;;;6.80;18.70;;;;;;2614551;54;20126;-76
2023/03/27 17:24:36;;;;;;;11.80;11.00;;;6.20;24.40;;;;;;2612765;54;20150;-74
2023/03/27 17:27:21;;;;;;;11.40;10.80;;;6.00;26.20;;;;;;2610720;47;20408;-78
2023/03/27 17:29:47;;;;;;;11.50;10.90;;;5.90;28.80;;;;;;2613459;39;20620;-75
2023/03/27 17:35:37;;;;;;;11.00;10.20;;;5.80;28.50;;;;;;2614506;54;20126;-75
2023/03/27 17:41:25;;;;;;;11.10;10.53;;;5.60;35.10;;;;;;2614021;54;20407;-77
2023/03/27 17:47:13;;;;;;;11.47;10.47;;;5.50;44.90;;;;;;2609698;54;20378;-76
2023/03/27 17:53:01;;;;;;;11.10;10.30;;;5.40;51.10;;;;;;2613015;54;20597;-76
2023/03/27 17:58:49;;;;;;;10.03;9.30;;;5.20;55.20;;;;;;2608090;54;20118;-75
2023/03/27 18:04:37;;;;;;;10.47;9.73;;;5.30;53.60;;;;;;2610338;54;20672;-76
2023/03/27 18:10:24;;;;;;;10.00;9.40;;;5.20;50.60;;;;;;2611905;54;20775;-75
2023/03/27 18:16:12;;;;;;;11.10;10.50;;;5.00;58.50;;;;;;2612983;39;20533;-76
2023/03/27 18:22:00;;;;;;;11.83;10.37;;;4.90;75.80;;;;;;2609489;39;20466;-76
2023/03/27 18:27:48;;;;;;;10.00;9.13;;;4.80;93.70;;;;;;2611462;54;20403;-75
2023/03/27 18:33:37;;;;;;;9.97;8.97;;;4.70;99.90;;;;;;2610572;54;20207;-76
2023/03/27 18:39:25;;;;;;;8.97;8.37;;;4.70;99.90;;;;;;2609087;54;20411;-76
2023/03/27 18:45:15;;;;;;;11.60;7.80;;;4.50;99.90;;;;;;2610586;54;20431;-75
2023/03/27 18:51:04;;;;;;;8.83;8.03;;;4.30;99.90;;;;;;2613641;54;20443;-77
2023/03/27 18:56:52;;;;;;;7.50;6.83;;;4.10;99.90;;;;;;2613908;54;20904;-77
2023/03/27 19:02:40;;;;;;;16.80;7.40;;;4.30;99.90;;;;;;2613553;39;20519;-77
2023/03/27 19:08:28;;;;;;;7.97;6.60;;;4.20;99.90;;;;;;2612691;54;20154;-76
2023/03/27 19:14:16;;;;;;;8.17;7.27;;;4.10;99.90;;;;;;2612392;54;20969;-77
2023/03/27 19:20:04;;;;;;;10.60;9.33;;;4.10;99.90;;;;;;2612095;47;20762;-76
2023/03/27 19:25:53;;;;;;;11.73;9.07;;;3.80;99.90;;;;;;2613879;54;20359;-77
2023/03/27 19:31:41;;;;;;;8.67;8.07;;;4.20;99.90;;;;;;2611740;54;20390;-77
2023/03/27 19:37:30;;;;;;;8.73;7.90;;;4.20;99.90;;;;;;2610225;39;20637;-76
2023/03/27 19:43:20;;;;;;;7.97;7.37;;;4.20;99.90;;;;;;2613119;54;20961;-76
2023/03/27 19:49:08;;;;;;;8.80;8.00;;;4.00;99.90;;;;;;2613975;54;20937;-76
2023/03/27 19:54:55;;;;;;;8.90;8.10;;;4.00;99.90;;;;;;2613022;54;20134;-76
2023/03/27 20:00:49;;;;;;;8.93;8.03;;;4.00;99.90;;;;;;2611684;54;20198;-77
2023/03/27 20:06:38;;;;;;;9.20;7.90;;;3.70;99.90;;;;;;2613066;54;20409;-76
2023/03/27 20:12:26;;;;;;;8.20;7.50;;;3.60;99.90;;;;;;2614138;54;20391;-76
2023/03/27 20:18:13;;;;;;;8.57;7.80;;;3.50;99.90;;;;;;2614743;39;20848;-77
2023/03/27 20:24:01;;;;;;;18.67;7.80;;;3.50;99.90;;;;;;2608656;54;20489;-76
2023/03/27 20:29:49;;;;;;;8.47;7.60;;;3.50;99.90;;;;;;2613271;54;20633;-76
2023/03/27 20:35:40;;;;;;;9.00;7.73;;;3.30;99.90;;;;;;2613787;54;20135;-76
2023/03/27 20:41:29;;;;;;;8.27;7.47;;;3.10;99.90;;;;;;2613441;54;20470;-76
2023/03/27 20:47:17;;;;;;;9.90;7.73;;;2.80;99.90;;;;;;2612202;54;20410;-75
2023/03/27 20:53:05;;;;;;;8.47;6.57;;;3.00;99.90;;;;;;2613685;54;20390;-76
2023/03/27 20:58:54;;;;;;;7.47;6.53;;;2.90;99.90;;;;;;2613339;54;20142;-76
2023/03/27 21:04:41;;;;;;;13.70;7.20;;;2.80;99.90;;;;;;2612292;54;20416;-76
2023/03/27 21:13:51;;;;;;;9.53;6.97;;;2.50;99.90;;;;;;2613844;54;20383;-76
2023/03/27 21:19:39;;;;;;;8.17;7.47;;;2.20;99.90;;;;;;2614055;54;20138;-76
2023/03/27 21:25:26;;;;;;;7.80;6.90;;;2.10;99.90;;;;;;2610082;54;20138;-76
2023/03/27 21:31:14;;;;;;;9.87;6.93;;;2.10;99.90;;;;;;2612686;54;20133;-76
2023/03/27 21:37:02;;;;;;;7.60;6.90;;;2.10;99.90;;;;;;2609435;54;20836;-76
2023/03/27 21:42:50;;;;;;;8.77;7.87;;;1.90;99.90;;;;;;2611695;54;20157;-76
2023/03/27 21:48:39;;;;;;;10.70;7.50;;;1.90;99.90;;;;;;2612116;54;20130;-76
2023/03/27 21:54:27;;;;;;;11.00;7.60;;;2.10;99.90;;;;;;2613049;54;20419;-76
2023/03/27 22:00:14;;;;;;;6.97;6.40;;;2.10;99.90;;;;;;2610558;54;20549;-75
2023/03/27 22:06:04;;;;;;;6.43;5.57;;;2.00;99.90;;;;;;2613264;39;20809;-77
2023/03/27 22:09:10;;;;;;;16.77;5.93;;;2.00;99.90;;;;;;2611896;47;20402;-76
2023/03/27 22:11:36;;;;;;;7.77;5.60;;;2.00;99.90;;;;;;2611323;54;20469;-78
2023/03/27 22:17:23;;;;;;;6.40;5.90;;;1.90;99.90;;;;;;2610891;54;20203;-75
2023/03/27 22:23:11;;;;;;;8.67;6.03;;;1.90;99.90;;;;;;2612613;54;20151;-76
2023/03/27 22:28:59;;;;;;;8.37;6.00;;;1.50;99.90;;;;;;2611923;54;20130;-77
2023/03/27 22:34:47;;;;;;;11.83;6.07;;;1.60;99.90;;;;;;2612649;39;20512;-76
2023/03/27 22:40:35;;;;;;;7.37;6.20;;;1.60;99.90;;;;;;2613005;54;20406;-75
2023/03/27 22:46:23;;;;;;;7.20;5.60;;;1.60;99.90;;;;;;2615306;54;20386;-76
2023/03/27 22:52:11;;;;;;;10.17;6.03;;;1.80;99.90;;;;;;2614048;54;20193;-76
2023/03/27 22:57:59;;;;;;;6.03;5.37;;;1.70;99.90;;;;;;2613515;54;20640;-76
2023/03/27 23:13:54;;;;;;;7.40;5.30;;;1.50;99.90;;;;;;2612804;54;20403;-75
2023/03/27 23:19:41;;;;;;;14.43;5.60;;;1.30;99.90;;;;;;2613054;54;20447;-76
2023/03/27 23:25:29;;;;;;;6.00;5.40;;;1.20;99.90;;;;;;2613946;54;20242;-75
2023/03/27 23:31:18;;;;;;;7.90;5.50;;;1.30;99.90;;;;;;2614108;54;20243;-76
2023/03/27 23:37:06;;;;;;;5.77;5.20;;;1.40;99.90;;;;;;2613063;39;20747;-76
2023/03/27 23:42:54;;;;;;;7.40;6.03;;;1.20;99.90;;;;;;2612585;54;20130;-76
2023/03/27 23:48:43;;;;;;;10.80;5.90;;;1.20;99.90;;;;;;2612353;54;20138;-76
2023/03/27 23:54:31;;;;;;;7.10;5.53;;;1.20;99.90;;;;;;2612078;54;20371;-76
